Flight Track Log - Related Links

Times and Time Zones

All times are in EDT time to prevent confusion due to time zone crossing. See the ASQ5941 flight status page for this flight to view local times or setup timezone preferences in your user account.

Time Position Orientation Groundspeed Altitude Reporting Facility
EDT Latitude Longitude Course Direction KTS MPH feet Rate Location/Type
Fri 03:37:51 PM 41.9167 -87.9167 80° East 166 191 3,300  Level Chicago TRACON
Fri 03:38:44 PM 41.8919 -87.8539 118° Southeast 228 262 4,700 887 Climbing Chicago Center
Fri 03:39:46 PM 41.8547 -87.7744 122° Southeast 239 275 5,000 194 Climbing Chicago Center
Fri 03:40:00 PM 42.0510 -87.3601 78° East  Level FlightAware Approximate
Fri 03:40:48 PM 41.8461 -87.6833 97° East 263 303 5,100  Level Chicago Center
Fri 03:41:00 PM 42.0722 -87.2230 78° East  Level FlightAware Approximate
Fri 03:41:50 PM 41.8811 -87.5997 61° Northeast 260 299 5,200  Level Chicago Center
Fri 03:42:00 PM 42.0940 -87.0860 77° East  Level FlightAware Approximate
Fri 03:42:52 PM 41.9256 -87.4972 60° Northeast 264 304 7,700  Level Chicago Center
Fri 03:43:00 PM 42.1068 -86.9456 80° East  Level FlightAware Approximate
Fri 03:43:54 PM 41.9647 -87.4089 59° Northeast 272 313 9,900  Level Chicago Center
Fri 03:44:57 PM 42.0028 -87.3175 61° Northeast 278 320 11,900 1,872 Climbing Chicago Center
Fri 03:45:59 PM 42.0439 -87.2236 59° Northeast 289 333 13,800 1,742 Climbing Chicago Center
Fri 03:47:01 PM 42.0844 -87.1286 60° Northeast 294 338 15,500 1,065 Climbing Chicago Center
Fri 03:48:03 PM 42.1175 -87.0325 65° Northeast 286 329 16,000 339 Climbing Chicago Center
Fri 03:49:05 PM 42.1178 -86.8881 90° East 308 354 16,200 677 Climbing Chicago Center
Fri 03:50:07 PM 42.1222 -86.7689 87° East 317 365 17,400 1,016 Climbing Chicago Center
Fri 03:51:09 PM 42.0972 -86.6342 104° East 357 411 18,300 919 Climbing Chicago Center
Fri 03:52:11 PM 42.0839 -86.5042 98° East 359 413 19,300 968 Climbing Chicago Center
Fri 03:53:13 PM 42.0886 -86.3669 87° East 366 421 20,300 968 Climbing Chicago Center
Fri 03:55:17 PM 42.0992 -86.0872 87° East 376 433 22,300 1,000 Climbing Chicago Center
Fri 03:56:19 PM 42.1053 -85.9281 87° East 378 435 23,400 1,008 Climbing Chicago Center
Fri 03:57:22 PM 42.1094 -85.7839 88° East 384 442 24,400 960 Climbing Chicago Center
Fri 03:58:24 PM 42.1144 -85.6394 87° East 388 447 25,400 968 Climbing Chicago Center
Fri 03:59:26 PM 42.1192 -85.4931 87° East 393 452 26,400 1,065 Climbing Chicago Center
Fri 04:00:28 PM 42.1247 -85.3183 87° East 391 450 27,600 1,065 Climbing Chicago Center
Fri 04:01:30 PM 42.1294 -85.1708 87° East 395 455 28,600 968 Climbing Chicago Center
Fri 04:02:32 PM 42.1333 -85.0286 88° East 387 445 29,600 968 Climbing Chicago Center
Fri 04:03:34 PM 42.1303 -84.8836 92° East 388 447 30,600 968 Climbing Chicago Center
Fri 04:04:36 PM 42.1283 -84.7381 91° East 390 449 31,600 1,113 Climbing Chicago Center
Fri 04:05:38 PM 42.1247 -84.5631 92° East 390 449 32,900 1,113 Climbing Chicago Center
Fri 04:06:40 PM 42.1275 -84.4192 88° East 385 443 33,900 968 Climbing Chicago Center
Fri 04:07:42 PM 42.1456 -84.2783 80° East 382 440 34,900 569 Climbing Chicago Center
Fri 04:08:36 PM 42.1481 -84.1597 88° East 379 436 35,000 53 Climbing Cleveland Center
Fri 04:09:36 PM 42.1467 -84.0028 91° East 391 450 35,000  Level Cleveland Center
Fri 04:10:36 PM 42.1428 -83.8486 92° East 404 465 35,000  Level Cleveland Center
Fri 04:11:36 PM 42.1386 -83.6942 92° East 409 471 35,000  Level Cleveland Center
Fri 04:12:36 PM 42.1369 -83.5261 91° East 409 471 35,000  Level Cleveland Center
Fri 04:13:36 PM 42.1325 -83.3692 92° East 409 471 35,000  Level Cleveland Center
Fri 04:14:36 PM 42.1300 -83.2150 91° East 409 471 35,000 300 Level Cleveland Center
Fri 04:15:36 PM 42.1247 -83.0719 93° East 415 478 35,600 800 Climbing Cleveland Center
Fri 04:16:36 PM 42.1194 -82.9206 93° East 409 471 36,600 700 Climbing Cleveland Center
Fri 04:17:36 PM 42.1183 -82.7694 91° East 403 464 37,000 200 Climbing Cleveland Center
Fri 04:18:36 PM 42.1108 -82.6181 94° East 403 464 37,000  Level Cleveland Center
Fri 04:19:36 PM 42.1133 -82.4614 89° East 408 470 37,000  Level Cleveland Center
Fri 04:20:36 PM 42.0992 -82.3125 97° East 403 464 37,000  Level Cleveland Center
Fri 04:21:36 PM 42.0950 -82.1558 92° East 408 470 37,000  Level Cleveland Center
Fri 04:22:36 PM 42.0911 -81.9850 92° East 408 470 37,000  Level Cleveland Center
Fri 04:23:36 PM 42.0867 -81.8253 92° East 414 476 37,000  Level Cleveland Center
Fri 04:24:36 PM 42.0800 -81.6658 93° East 424 488 37,000  Level Cleveland Center
Fri 04:25:36 PM 42.0731 -81.5061 93° East 424 488 37,000  Level Cleveland Center
Fri 04:26:36 PM 42.0678 -81.3439 92° East 429 494 37,000  Level Cleveland Center
Fri 04:27:36 PM 42.0583 -81.1789 94° East 429 494 37,000  Level Cleveland Center
Fri 04:28:36 PM 42.0508 -81.0108 93° East 440 506 37,000 -250 Level Cleveland Center
Fri 04:29:36 PM 42.0450 -80.8711 93° East 435 501 36,500 -750 Descending Cleveland Center
Fri 04:30:36 PM 42.0392 -80.7061 93° East 435 501 35,500 -1,000 Descending Cleveland Center
Fri 04:31:36 PM 42.0289 -80.5469 95° East 440 506 34,500 -750 Descending Cleveland Center
Fri 04:32:36 PM 42.0222 -80.3819 93° East 440 506 34,000 -250 Descending Cleveland Center
Fri 04:33:36 PM 42.0136 -80.2283 94° East 426 490 34,000  Level Cleveland Center
Fri 04:34:36 PM 42.0047 -80.0550 94° East 421 484 34,000  Level Cleveland Center
Fri 04:35:36 PM 41.9975 -79.9069 94° East 427 491 34,000  Level Cleveland Center
Fri 04:36:36 PM 41.9881 -79.7394 94° East 432 497 34,000 -350 Level Cleveland Center
Fri 04:37:36 PM 41.9786 -79.5750 94° East 439 505 33,300 -500 Descending Cleveland Center
Fri 04:38:36 PM 41.9686 -79.4103 95° East 439 505 33,000 -150 Descending Cleveland Center
Fri 04:39:36 PM 41.9586 -79.2542 95° East 439 505 33,000  Level Cleveland Center
Fri 04:40:36 PM 41.9503 -79.0867 94° East 439 505 33,000  Level Cleveland Center
Fri 04:41:36 PM 41.9375 -78.9222 96° East 439 505 33,000  Level Cleveland Center
Fri 04:42:36 PM 41.9267 -78.7608 95° East 439 505 33,000  Level Cleveland Center
Fri 04:43:36 PM 41.9178 -78.5964 94° East 439 505 33,000 -450 Level Cleveland Center
Fri 04:44:36 PM 41.9044 -78.4294 96° East 439 505 32,100 -950 Descending Cleveland Center
Fri 04:45:36 PM 41.8950 -78.2678 94° East 439 505 31,100 -949 Descending Cleveland Center
Fri 04:47:52 PM 41.8656 -77.9011 96° East 436 502 29,000 -949 Descending New York Center
Fri 04:48:52 PM 41.8247 -77.7492 110° East 436 502 28,000 -992 Descending New York Center
Fri 04:49:53 PM 41.7683 -77.6069 118° Southeast 431 496 27,000 -1,017 Descending New York Center
Fri 04:50:50 PM 41.7100 -77.4619 118° Southeast 437 503 26,000 -1,119 Descending New York Center
Fri 04:51:51 PM 41.6800 -77.2867 103° East 437 503 24,800 -1,279 Descending New York Center
Fri 04:52:52 PM 41.6683 -77.1578 97° East 437 503 23,400 -1,869 Descending New York Center
Fri 04:53:53 PM 41.6481 -76.9892 99° East 431 496 21,000 -2,370 Descending New York Center
Fri 04:54:51 PM 41.6328 -76.8408 98° East 425 489 18,700 -2,118 Descending New York Center
Fri 04:55:52 PM 41.6197 -76.7286 99° East 404 465 16,800 -2,852 Descending New York Center
Fri 04:56:53 PM 41.6008 -76.5658 99° East 370 426 12,900 -3,025 Descending New York Center
Fri 04:57:51 PM 41.5850 -76.4203 98° East 365 420 10,800 -1,576 Descending New York Center
Fri 04:58:51 PM 41.5733 -76.3111 98° East 328 377 9,800 -1,289 Descending New York Center
Fri 04:59:52 PM 41.5614 -76.2103 99° East 285 328 8,200 -1,623 Descending New York Center
Fri 05:00:53 PM 41.5442 -76.1286 106° East 261 300 6,500 -1,563 Descending New York Center
Fri 05:01:51 PM 41.4825 -76.0683 144° Southeast 244 281 5,100 -1,271 Descending New York Center
Fri 05:02:51 PM 41.4244 -76.0111 144° Southeast 256 295 4,000 -545 Descending New York Center
Fri 05:03:52 PM 41.3664 -75.9569 145° Southeast 261 300 4,000 -50 Level New York Center
Fri 05:04:52 PM 41.3064 -75.9053 147° Southeast 261 300 3,900 -350 Descending New York Center
Fri 05:05:52 PM 41.2628 -75.8522 138° Southeast 245 282 3,300 -600 Descending New York Center

Login

Don't have an account? Register now (free) for customized features, flight alerts, and more!